sensor_id;sensor_type;location;lat;lon;timestamp;temperature;humidity
53310;DHT22;39197;53.200;5.792;2023-10-13T00:01:54;13.60;99.90
53310;DHT22;39197;53.200;5.792;2023-10-13T00:04:23;13.60;99.90
53310;DHT22;39197;53.200;5.792;2023-10-13T00:06:54;13.70;99.90
53310;DHT22;39197;53.200;5.792;2023-10-13T00:09:25;13.70;99.90
53310;DHT22;39197;53.200;5.792;2023-10-13T00:11:58;13.80;99.90
53310;DHT22;39197;53.200;5.792;2023-10-13T00:14:23;13.70;99.90
53310;DHT22;39197;53.200;5.792;2023-10-13T00:16:57;13.90;99.90
53310;DHT22;39197;53.200;5.792;2023-10-13T00:19:33;14.00;99.90
53310;DHT22;39197;53.200;5.792;2023-10-13T00:22:15;14.10;99.90
53310;DHT22;39197;53.200;5.792;2023-10-13T00:24:43;14.20;99.90
53310;DHT22;39197;53.200;5.792;2023-10-13T00:27:12;14.20;99.90
53310;DHT22;39197;53.200;5.792;2023-10-13T00:30:08;14.30;99.90
53310;DHT22;39197;53.200;5.792;2023-10-13T00:32:59;14.40;99.90
53310;DHT22;39197;53.200;5.792;2023-10-13T00:35:29;14.50;99.90
53310;DHT22;39197;53.200;5.792;2023-10-13T00:38:04;14.60;99.90
53310;DHT22;39197;53.200;5.792;2023-10-13T00:40:40;14.60;99.90
53310;DHT22;39197;53.200;5.792;2023-10-13T00:43:07;14.90;99.90
53310;DHT22;39197;53.200;5.792;2023-10-13T00:45:49;14.70;99.90
53310;DHT22;39197;53.200;5.792;2023-10-13T00:48:35;14.80;99.90
53310;DHT22;39197;53.200;5.792;2023-10-13T00:51:09;14.80;99.90
53310;DHT22;39197;53.200;5.792;2023-10-13T00:54:02;15.00;99.90
53310;DHT22;39197;53.200;5.792;2023-10-13T00:56:28;15.00;99.90
53310;DHT22;39197;53.200;5.792;2023-10-13T00:58:56;15.00;99.90
53310;DHT22;39197;53.200;5.792;2023-10-13T01:01:24;15.20;99.90
53310;DHT22;39197;53.200;5.792;2023-10-13T01:03:58;15.20;99.90
53310;DHT22;39197;53.200;5.792;2023-10-13T01:06:29;15.20;99.90
53310;DHT22;39197;53.200;5.792;2023-10-13T01:09:02;15.30;99.90
53310;DHT22;39197;53.200;5.792;2023-10-13T01:11:40;15.20;99.90
53310;DHT22;39197;53.200;5.792;2023-10-13T01:14:09;15.40;99.90
53310;DHT22;39197;53.200;5.792;2023-10-13T01:16:37;15.50;99.90
53310;DHT22;39197;53.200;5.792;2023-10-13T01:19:12;15.30;99.90
53310;DHT22;39197;53.200;5.792;2023-10-13T01:21:41;15.40;99.90
53310;DHT22;39197;53.200;5.792;2023-10-13T01:24:07;15.50;99.90
53310;DHT22;39197;53.200;5.792;2023-10-13T01:26:36;15.40;99.90
53310;DHT22;39197;53.200;5.792;2023-10-13T01:29:05;15.50;99.90
53310;DHT22;39197;53.200;5.792;2023-10-13T01:31:44;15.60;99.90
53310;DHT22;39197;53.200;5.792;2023-10-13T01:36:45;15.60;99.90
53310;DHT22;39197;53.200;5.792;2023-10-13T01:39:11;15.70;99.90
53310;DHT22;39197;53.200;5.792;2023-10-13T01:41:42;15.70;99.90
53310;DHT22;39197;53.200;5.792;2023-10-13T01:44:09;15.80;99.90
53310;DHT22;39197;53.200;5.792;2023-10-13T01:46:37;15.80;99.90
53310;DHT22;39197;53.200;5.792;2023-10-13T01:49:03;15.80;99.90
53310;DHT22;39197;53.200;5.792;2023-10-13T01:51:29;15.70;99.90
53310;DHT22;39197;53.200;5.792;2023-10-13T01:53:54;15.80;99.90
53310;DHT22;39197;53.200;5.792;2023-10-13T01:56:24;15.70;99.90
53310;DHT22;39197;53.200;5.792;2023-10-13T01:58:50;15.70;99.90
53310;DHT22;39197;53.200;5.792;2023-10-13T02:01:17;16.00;99.90
53310;DHT22;39197;53.200;5.792;2023-10-13T02:03:56;15.80;99.90
53310;DHT22;39197;53.200;5.792;2023-10-13T02:06:33;15.80;99.90
53310;DHT22;39197;53.200;5.792;2023-10-13T02:09:07;15.80;99.90
53310;DHT22;39197;53.200;5.792;2023-10-13T02:11:40;15.80;99.90
53310;DHT22;39197;53.200;5.792;2023-10-13T02:14:07;15.80;99.90
53310;DHT22;39197;53.200;5.792;2023-10-13T02:16:33;15.80;99.90
53310;DHT22;39197;53.200;5.792;2023-10-13T02:18:58;15.80;99.90
53310;DHT22;39197;53.200;5.792;2023-10-13T02:21:33;16.00;99.90
53310;DHT22;39197;53.200;5.792;2023-10-13T02:24:06;16.10;99.90
53310;DHT22;39197;53.200;5.792;2023-10-13T02:26:38;15.90;99.90
53310;DHT22;39197;53.200;5.792;2023-10-13T02:29:06;15.90;99.90
53310;DHT22;39197;53.200;5.792;2023-10-13T02:31:40;15.90;99.90
53310;DHT22;39197;53.200;5.792;2023-10-13T02:34:07;15.90;99.90
53310;DHT22;39197;53.200;5.792;2023-10-13T02:36:34;15.80;99.90
53310;DHT22;39197;53.200;5.792;2023-10-13T02:39:12;15.80;99.90
53310;DHT22;39197;53.200;5.792;2023-10-13T02:41:39;15.90;99.90
53310;DHT22;39197;53.200;5.792;2023-10-13T02:44:07;15.80;99.90
53310;DHT22;39197;53.200;5.792;2023-10-13T02:46:36;15.80;99.90
53310;DHT22;39197;53.200;5.792;2023-10-13T02:49:05;15.80;99.90
53310;DHT22;39197;53.200;5.792;2023-10-13T02:51:37;15.80;99.90
53310;DHT22;39197;53.200;5.792;2023-10-13T02:54:05;15.90;99.90
53310;DHT22;39197;53.200;5.792;2023-10-13T02:56:46;15.80;99.90
53310;DHT22;39197;53.200;5.792;2023-10-13T02:59:25;16.00;99.90
53310;DHT22;39197;53.200;5.792;2023-10-13T03:02:06;15.90;99.90
53310;DHT22;39197;53.200;5.792;2023-10-13T03:04:54;15.90;99.90
53310;DHT22;39197;53.200;5.792;2023-10-13T03:07:35;15.90;99.90
53310;DHT22;39197;53.200;5.792;2023-10-13T03:10:02;15.90;99.90
53310;DHT22;39197;53.200;5.792;2023-10-13T03:12:36;16.00;99.90
53310;DHT22;39197;53.200;5.792;2023-10-13T03:15:02;16.00;99.90
53310;DHT22;39197;53.200;5.792;2023-10-13T03:17:40;16.00;99.90
53310;DHT22;39197;53.200;5.792;2023-10-13T03:20:18;16.00;99.90
53310;DHT22;39197;53.200;5.792;2023-10-13T03:22:52;16.00;99.90
53310;DHT22;39197;53.200;5.792;2023-10-13T03:25:18;16.00;99.90
53310;DHT22;39197;53.200;5.792;2023-10-13T03:27:55;15.80;99.90
53310;DHT22;39197;53.200;5.792;2023-10-13T03:30:21;15.90;99.90
53310;DHT22;39197;53.200;5.792;2023-10-13T03:32:55;15.90;99.90
53310;DHT22;39197;53.200;5.792;2023-10-13T03:35:21;15.90;99.90
53310;DHT22;39197;53.200;5.792;2023-10-13T03:37:54;16.00;99.90
53310;DHT22;39197;53.200;5.792;2023-10-13T03:40:21;16.00;99.90
53310;DHT22;39197;53.200;5.792;2023-10-13T03:42:52;15.90;99.90
53310;DHT22;39197;53.200;5.792;2023-10-13T03:45:38;15.90;99.90
53310;DHT22;39197;53.200;5.792;2023-10-13T03:48:10;15.90;99.90
53310;DHT22;39197;53.200;5.792;2023-10-13T03:50:40;15.90;99.90
53310;DHT22;39197;53.200;5.792;2023-10-13T03:53:13;15.80;99.90
53310;DHT22;39197;53.200;5.792;2023-10-13T03:55:39;15.80;99.90
53310;DHT22;39197;53.200;5.792;2023-10-13T03:58:05;15.70;99.90
53310;DHT22;39197;53.200;5.792;2023-10-13T04:00:32;15.80;99.90
53310;DHT22;39197;53.200;5.792;2023-10-13T04:02:58;15.90;99.90
53310;DHT22;39197;53.200;5.792;2023-10-13T04:05:35;16.00;99.90
53310;DHT22;39197;53.200;5.792;2023-10-13T04:08:06;15.70;99.90
53310;DHT22;39197;53.200;5.792;2023-10-13T04:10:52;15.80;99.90
53310;DHT22;39197;53.200;5.792;2023-10-13T04:13:18;15.80;99.90
53310;DHT22;39197;53.200;5.792;2023-10-13T04:16:03;15.90;99.90
53310;DHT22;39197;53.200;5.792;2023-10-13T04:18:50;15.70;99.90
53310;DHT22;39197;53.200;5.792;2023-10-13T04:21:25;15.90;99.90
53310;DHT22;39197;53.200;5.792;2023-10-13T04:24:23;15.80;99.90
53310;DHT22;39197;53.200;5.792;2023-10-13T04:27:03;16.00;99.90
53310;DHT22;39197;53.200;5.792;2023-10-13T04:29:38;15.90;99.90
53310;DHT22;39197;53.200;5.792;2023-10-13T04:32:22;16.00;99.90
53310;DHT22;39197;53.200;5.792;2023-10-13T04:34:58;15.90;99.90
53310;DHT22;39197;53.200;5.792;2023-10-13T04:37:37;15.90;99.90
53310;DHT22;39197;53.200;5.792;2023-10-13T04:40:21;15.90;99.90
53310;DHT22;39197;53.200;5.792;2023-10-13T04:42:51;15.90;99.90
53310;DHT22;39197;53.200;5.792;2023-10-13T04:45:25;15.90;99.90
53310;DHT22;39197;53.200;5.792;2023-10-13T04:48:00;15.90;99.90
53310;DHT22;39197;53.200;5.792;2023-10-13T04:50:44;15.90;99.90
53310;DHT22;39197;53.200;5.792;2023-10-13T04:53:18;16.00;99.90
53310;DHT22;39197;53.200;5.792;2023-10-13T04:56:13;15.90;99.90
53310;DHT22;39197;53.200;5.792;2023-10-13T04:58:57;15.80;99.90
53310;DHT22;39197;53.200;5.792;2023-10-13T05:01:43;15.80;99.90
53310;DHT22;39197;53.200;5.792;2023-10-13T05:04:35;16.10;99.90
53310;DHT22;39197;53.200;5.792;2023-10-13T05:07:03;15.80;99.90
53310;DHT22;39197;53.200;5.792;2023-10-13T05:09:48;15.80;99.90
53310;DHT22;39197;53.200;5.792;2023-10-13T05:12:32;15.80;99.90
53310;DHT22;39197;53.200;5.792;2023-10-13T05:15:16;15.80;99.90
53310;DHT22;39197;53.200;5.792;2023-10-13T05:18:00;15.70;99.90
53310;DHT22;39197;53.200;5.792;2023-10-13T05:20:44;15.70;99.90
53310;DHT22;39197;53.200;5.792;2023-10-13T05:23:28;15.70;99.90
53310;DHT22;39197;53.200;5.792;2023-10-13T05:26:13;15.70;99.90
53310;DHT22;39197;53.200;5.792;2023-10-13T05:28:57;15.60;99.90
53310;DHT22;39197;53.200;5.792;2023-10-13T05:31:41;15.70;99.90
53310;DHT22;39197;53.200;5.792;2023-10-13T05:34:25;15.60;99.90
53310;DHT22;39197;53.200;5.792;2023-10-13T05:37:09;15.70;99.90
53310;DHT22;39197;53.200;5.792;2023-10-13T05:39:53;15.60;99.90
53310;DHT22;39197;53.200;5.792;2023-10-13T05:42:37;15.70;99.90
53310;DHT22;39197;53.200;5.792;2023-10-13T05:45:21;15.60;99.90
53310;DHT22;39197;53.200;5.792;2023-10-13T05:48:05;15.60;99.90
53310;DHT22;39197;53.200;5.792;2023-10-13T05:50:39;15.40;99.90
53310;DHT22;39197;53.200;5.792;2023-10-13T05:53:24;15.10;99.90
53310;DHT22;39197;53.200;5.792;2023-10-13T05:56:08;15.40;99.90
53310;DHT22;39197;53.200;5.792;2023-10-13T05:58:52;15.20;99.90
53310;DHT22;39197;53.200;5.792;2023-10-13T06:01:36;15.20;99.90
53310;DHT22;39197;53.200;5.792;2023-10-13T06:04:20;15.30;99.90
53310;DHT22;39197;53.200;5.792;2023-10-13T06:07:05;15.20;99.90
53310;DHT22;39197;53.200;5.792;2023-10-13T06:09:49;15.20;99.90
53310;DHT22;39197;53.200;5.792;2023-10-13T06:12:33;15.20;99.90
53310;DHT22;39197;53.200;5.792;2023-10-13T06:15:17;15.20;99.90
53310;DHT22;39197;53.200;5.792;2023-10-13T06:18:01;15.20;99.90
53310;DHT22;39197;53.200;5.792;2023-10-13T06:20:46;15.20;99.90
53310;DHT22;39197;53.200;5.792;2023-10-13T06:23:31;15.30;99.90
53310;DHT22;39197;53.200;5.792;2023-10-13T06:26:15;15.40;99.90
53310;DHT22;39197;53.200;5.792;2023-10-13T06:29:00;15.40;99.90
53310;DHT22;39197;53.200;5.792;2023-10-13T06:31:25;15.50;99.90
53310;DHT22;39197;53.200;5.792;2023-10-13T06:33:51;15.50;99.90
53310;DHT22;39197;53.200;5.792;2023-10-13T06:36:17;15.60;99.90
53310;DHT22;39197;53.200;5.792;2023-10-13T06:38:43;15.60;99.90
53310;DHT22;39197;53.200;5.792;2023-10-13T06:41:09;15.80;99.90
53310;DHT22;39197;53.200;5.792;2023-10-13T06:43:45;16.10;99.90
53310;DHT22;39197;53.200;5.792;2023-10-13T06:46:11;15.70;99.90
53310;DHT22;39197;53.200;5.792;2023-10-13T06:48:49;15.70;99.90
53310;DHT22;39197;53.200;5.792;2023-10-13T06:51:19;15.80;99.90
53310;DHT22;39197;53.200;5.792;2023-10-13T06:53:48;15.80;99.90
53310;DHT22;39197;53.200;5.792;2023-10-13T06:56:15;15.70;99.90
53310;DHT22;39197;53.200;5.792;2023-10-13T06:58:51;15.80;99.90
53310;DHT22;39197;53.200;5.792;2023-10-13T07:01:17;15.80;99.90
53310;DHT22;39197;53.200;5.792;2023-10-13T07:03:47;15.80;99.90
53310;DHT22;39197;53.200;5.792;2023-10-13T07:06:27;15.70;99.90
53310;DHT22;39197;53.200;5.792;2023-10-13T07:08:53;15.70;99.90
53310;DHT22;39197;53.200;5.792;2023-10-13T07:11:28;15.80;99.90
53310;DHT22;39197;53.200;5.792;2023-10-13T07:14:04;15.70;99.90
53310;DHT22;39197;53.200;5.792;2023-10-13T07:16:59;15.70;99.90
53310;DHT22;39197;53.200;5.792;2023-10-13T07:19:26;15.60;99.90
53310;DHT22;39197;53.200;5.792;2023-10-13T07:21:56;15.50;99.90
53310;DHT22;39197;53.200;5.792;2023-10-13T07:24:28;15.80;99.90
53310;DHT22;39197;53.200;5.792;2023-10-13T07:27:00;15.60;99.90
53310;DHT22;39197;53.200;5.792;2023-10-13T07:29:30;15.60;99.90
53310;DHT22;39197;53.200;5.792;2023-10-13T07:32:00;15.50;99.90
53310;DHT22;39197;53.200;5.792;2023-10-13T07:34:29;15.50;99.90
53310;DHT22;39197;53.200;5.792;2023-10-13T07:36:58;15.40;99.90
53310;DHT22;39197;53.200;5.792;2023-10-13T07:39:33;15.40;99.90
53310;DHT22;39197;53.200;5.792;2023-10-13T07:41:59;15.40;99.90
53310;DHT22;39197;53.200;5.792;2023-10-13T07:44:34;15.30;99.90
53310;DHT22;39197;53.200;5.792;2023-10-13T07:47:02;15.30;99.90
53310;DHT22;39197;53.200;5.792;2023-10-13T07:49:36;15.50;99.90
53310;DHT22;39197;53.200;5.792;2023-10-13T07:52:09;15.30;99.90
53310;DHT22;39197;53.200;5.792;2023-10-13T07:54:49;15.30;99.90
53310;DHT22;39197;53.200;5.792;2023-10-13T07:57:18;15.30;99.90
53310;DHT22;39197;53.200;5.792;2023-10-13T07:59:44;15.30;99.90
53310;DHT22;39197;53.200;5.792;2023-10-13T08:02:17;15.30;99.90
53310;DHT22;39197;53.200;5.792;2023-10-13T08:05:02;15.40;99.90
53310;DHT22;39197;53.200;5.792;2023-10-13T08:07:30;15.40;99.90
53310;DHT22;39197;53.200;5.792;2023-10-13T08:09:56;15.40;99.90
53310;DHT22;39197;53.200;5.792;2023-10-13T08:12:25;15.40;99.90
53310;DHT22;39197;53.200;5.792;2023-10-13T08:14:51;15.40;99.90
53310;DHT22;39197;53.200;5.792;2023-10-13T08:17:36;15.60;99.90
53310;DHT22;39197;53.200;5.792;2023-10-13T08:20:02;15.70;99.90
53310;DHT22;39197;53.200;5.792;2023-10-13T08:22:37;15.60;99.90
53310;DHT22;39197;53.200;5.792;2023-10-13T08:25:04;15.70;99.90
53310;DHT22;39197;53.200;5.792;2023-10-13T08:27:49;15.70;99.90
53310;DHT22;39197;53.200;5.792;2023-10-13T08:30:16;15.80;99.90
53310;DHT22;39197;53.200;5.792;2023-10-13T08:32:59;15.80;99.90
53310;DHT22;39197;53.200;5.792;2023-10-13T08:35:42;15.80;99.90
53310;DHT22;39197;53.200;5.792;2023-10-13T08:38:20;15.80;99.90
53310;DHT22;39197;53.200;5.792;2023-10-13T08:40:58;15.80;99.90
53310;DHT22;39197;53.200;5.792;2023-10-13T08:43:42;15.90;99.90
53310;DHT22;39197;53.200;5.792;2023-10-13T08:46:16;15.90;99.90
53310;DHT22;39197;53.200;5.792;2023-10-13T08:48:59;16.00;99.90
53310;DHT22;39197;53.200;5.792;2023-10-13T08:51:43;16.00;99.90
53310;DHT22;39197;53.200;5.792;2023-10-13T08:54:17;16.10;99.90
53310;DHT22;39197;53.200;5.792;2023-10-13T08:57:02;16.20;99.90
53310;DHT22;39197;53.200;5.792;2023-10-13T08:59:46;16.20;99.90
53310;DHT22;39197;53.200;5.792;2023-10-13T09:02:22;16.30;99.90
53310;DHT22;39197;53.200;5.792;2023-10-13T09:05:09;16.50;99.90
53310;DHT22;39197;53.200;5.792;2023-10-13T09:07:58;16.50;99.90
53310;DHT22;39197;53.200;5.792;2023-10-13T09:10:36;16.70;99.90
53310;DHT22;39197;53.200;5.792;2023-10-13T09:13:10;16.90;99.90
53310;DHT22;39197;53.200;5.792;2023-10-13T09:15:44;17.00;99.90
53310;DHT22;39197;53.200;5.792;2023-10-13T09:18:26;17.30;99.90
53310;DHT22;39197;53.200;5.792;2023-10-13T09:21:14;17.40;99.90
53310;DHT22;39197;53.200;5.792;2023-10-13T09:24:10;17.70;99.90
53310;DHT22;39197;53.200;5.792;2023-10-13T09:27:03;17.90;99.90
53310;DHT22;39197;53.200;5.792;2023-10-13T09:29:30;18.00;99.90
53310;DHT22;39197;53.200;5.792;2023-10-13T09:32:04;18.00;99.90
53310;DHT22;39197;53.200;5.792;2023-10-13T09:34:37;18.10;99.90
53310;DHT22;39197;53.200;5.792;2023-10-13T09:37:06;18.20;99.90
53310;DHT22;39197;53.200;5.792;2023-10-13T09:39:34;18.20;99.90
53310;DHT22;39197;53.200;5.792;2023-10-13T09:42:11;18.30;99.90
53310;DHT22;39197;53.200;5.792;2023-10-13T09:44:38;18.30;99.90
53310;DHT22;39197;53.200;5.792;2023-10-13T09:47:10;18.40;99.90
53310;DHT22;39197;53.200;5.792;2023-10-13T09:49:44;18.40;99.90
53310;DHT22;39197;53.200;5.792;2023-10-13T09:52:15;18.50;99.90
53310;DHT22;39197;53.200;5.792;2023-10-13T09:57:41;18.60;99.90
53310;DHT22;39197;53.200;5.792;2023-10-13T10:00:12;18.60;99.90
53310;DHT22;39197;53.200;5.792;2023-10-13T10:02:58;18.60;99.90
53310;DHT22;39197;53.200;5.792;2023-10-13T10:05:29;18.70;99.90
53310;DHT22;39197;53.200;5.792;2023-10-13T10:08:00;18.70;99.90
53310;DHT22;39197;53.200;5.792;2023-10-13T10:10:56;18.80;99.90
53310;DHT22;39197;53.200;5.792;2023-10-13T10:16:15;18.80;99.90
53310;DHT22;39197;53.200;5.792;2023-10-13T10:18:45;18.80;99.90
53310;DHT22;39197;53.200;5.792;2023-10-13T10:21:11;18.90;99.90
53310;DHT22;39197;53.200;5.792;2023-10-13T10:23:37;19.00;99.90
53310;DHT22;39197;53.200;5.792;2023-10-13T10:26:15;19.00;99.90
53310;DHT22;39197;53.200;5.792;2023-10-13T10:28:45;19.10;99.90
53310;DHT22;39197;53.200;5.792;2023-10-13T10:31:12;19.30;99.90
53310;DHT22;39197;53.200;5.792;2023-10-13T10:33:38;19.30;99.90
53310;DHT22;39197;53.200;5.792;2023-10-13T10:36:04;19.40;99.90
53310;DHT22;39197;53.200;5.792;2023-10-13T10:38:31;19.30;99.90
53310;DHT22;39197;53.200;5.792;2023-10-13T10:41:06;19.40;99.90
53310;DHT22;39197;53.200;5.792;2023-10-13T10:43:36;19.40;99.90
53310;DHT22;39197;53.200;5.792;2023-10-13T10:46:18;19.30;99.90
53310;DHT22;39197;53.200;5.792;2023-10-13T10:48:45;19.30;99.90
53310;DHT22;39197;53.200;5.792;2023-10-13T10:51:12;19.30;99.90
53310;DHT22;39197;53.200;5.792;2023-10-13T10:53:51;19.30;99.90
53310;DHT22;39197;53.200;5.792;2023-10-13T10:56:22;19.50;99.90
53310;DHT22;39197;53.200;5.792;2023-10-13T10:58:58;19.60;99.90
53310;DHT22;39197;53.200;5.792;2023-10-13T11:01:27;19.60;99.90
53310;DHT22;39197;53.200;5.792;2023-10-13T11:04:07;19.60;99.90
53310;DHT22;39197;53.200;5.792;2023-10-13T11:06:35;19.60;99.90
53310;DHT22;39197;53.200;5.792;2023-10-13T11:09:08;19.50;99.90
53310;DHT22;39197;53.200;5.792;2023-10-13T11:11:53;19.50;99.90
53310;DHT22;39197;53.200;5.792;2023-10-13T11:14:26;19.50;99.90
53310;DHT22;39197;53.200;5.792;2023-10-13T11:16:53;19.40;99.90
53310;DHT22;39197;53.200;5.792;2023-10-13T11:19:22;19.30;99.90
53310;DHT22;39197;53.200;5.792;2023-10-13T11:22:13;19.30;99.90
53310;DHT22;39197;53.200;5.792;2023-10-13T11:25:03;19.40;99.90
53310;DHT22;39197;53.200;5.792;2023-10-13T11:27:40;19.40;99.90
53310;DHT22;39197;53.200;5.792;2023-10-13T11:30:13;19.40;99.90
53310;DHT22;39197;53.200;5.792;2023-10-13T11:32:56;19.40;99.90
53310;DHT22;39197;53.200;5.792;2023-10-13T11:35:22;19.40;99.90
53310;DHT22;39197;53.200;5.792;2023-10-13T11:37:52;19.40;99.90
53310;DHT22;39197;53.200;5.792;2023-10-13T11:40:39;19.30;99.90
53310;DHT22;39197;53.200;5.792;2023-10-13T11:43:23;19.00;99.90
53310;DHT22;39197;53.200;5.792;2023-10-13T11:45:50;18.80;99.90
53310;DHT22;39197;53.200;5.792;2023-10-13T11:48:39;18.30;99.90
53310;DHT22;39197;53.200;5.792;2023-10-13T11:51:08;17.80;99.90
53310;DHT22;39197;53.200;5.792;2023-10-13T11:53:38;17.50;99.90
53310;DHT22;39197;53.200;5.792;2023-10-13T11:56:05;17.40;99.90
53310;DHT22;39197;53.200;5.792;2023-10-13T11:58:38;17.20;99.90
53310;DHT22;39197;53.200;5.792;2023-10-13T12:01:04;17.30;99.90
53310;DHT22;39197;53.200;5.792;2023-10-13T12:03:39;17.20;99.90
53310;DHT22;39197;53.200;5.792;2023-10-13T12:06:24;17.10;99.90
53310;DHT22;39197;53.200;5.792;2023-10-13T12:09:08;17.20;99.90
53310;DHT22;39197;53.200;5.792;2023-10-13T12:11:40;17.30;99.90
53310;DHT22;39197;53.200;5.792;2023-10-13T12:14:11;17.50;99.90
53310;DHT22;39197;53.200;5.792;2023-10-13T12:16:48;17.60;99.90
53310;DHT22;39197;53.200;5.792;2023-10-13T12:19:20;17.60;99.90
53310;DHT22;39197;53.200;5.792;2023-10-13T12:21:49;17.70;99.90
53310;DHT22;39197;53.200;5.792;2023-10-13T12:24:28;17.70;99.90
53310;DHT22;39197;53.200;5.792;2023-10-13T12:27:00;17.60;99.90
53310;DHT22;39197;53.200;5.792;2023-10-13T12:29:26;17.60;99.90
53310;DHT22;39197;53.200;5.792;2023-10-13T12:31:58;17.60;99.90
53310;DHT22;39197;53.200;5.792;2023-10-13T12:34:34;17.40;99.90
53310;DHT22;39197;53.200;5.792;2023-10-13T12:37:18;17.40;99.90
53310;DHT22;39197;53.200;5.792;2023-10-13T12:42:48;17.40;99.90
53310;DHT22;39197;53.200;5.792;2023-10-13T12:45:32;17.30;99.90
53310;DHT22;39197;53.200;5.792;2023-10-13T12:48:16;17.30;99.90
53310;DHT22;39197;53.200;5.792;2023-10-13T12:51:01;17.20;99.90
53310;DHT22;39197;53.200;5.792;2023-10-13T12:53:48;17.30;99.90
53310;DHT22;39197;53.200;5.792;2023-10-13T12:56:15;17.40;99.90
53310;DHT22;39197;53.200;5.792;2023-10-13T12:58:46;17.30;99.90
53310;DHT22;39197;53.200;5.792;2023-10-13T13:01:18;17.40;99.90
53310;DHT22;39197;53.200;5.792;2023-10-13T13:03:49;17.40;99.90
53310;DHT22;39197;53.200;5.792;2023-10-13T13:06:20;17.40;99.90
53310;DHT22;39197;53.200;5.792;2023-10-13T13:08:56;17.20;99.90
53310;DHT22;39197;53.200;5.792;2023-10-13T13:11:23;17.20;99.90
53310;DHT22;39197;53.200;5.792;2023-10-13T13:13:49;17.00;99.90
53310;DHT22;39197;53.200;5.792;2023-10-13T13:16:16;17.10;99.90
53310;DHT22;39197;53.200;5.792;2023-10-13T13:18:51;17.10;99.90
53310;DHT22;39197;53.200;5.792;2023-10-13T13:21:16;17.00;99.90
53310;DHT22;39197;53.200;5.792;2023-10-13T13:23:49;17.10;99.90
53310;DHT22;39197;53.200;5.792;2023-10-13T13:26:15;16.90;99.90
53310;DHT22;39197;53.200;5.792;2023-10-13T13:28:47;17.00;99.90
53310;DHT22;39197;53.200;5.792;2023-10-13T13:31:17;17.00;99.90
53310;DHT22;39197;53.200;5.792;2023-10-13T13:33:42;17.00;99.90
53310;DHT22;39197;53.200;5.792;2023-10-13T13:36:11;17.00;99.90
53310;DHT22;39197;53.200;5.792;2023-10-13T13:38:44;17.10;99.90
53310;DHT22;39197;53.200;5.792;2023-10-13T13:41:20;17.10;99.90
53310;DHT22;39197;53.200;5.792;2023-10-13T13:43:48;17.20;99.90
53310;DHT22;39197;53.200;5.792;2023-10-13T13:46:24;17.30;99.90
53310;DHT22;39197;53.200;5.792;2023-10-13T13:48:52;17.30;99.90
53310;DHT22;39197;53.200;5.792;2023-10-13T13:51:25;17.40;99.90
53310;DHT22;39197;53.200;5.792;2023-10-13T13:53:57;17.50;99.90
53310;DHT22;39197;53.200;5.792;2023-10-13T13:56:25;17.80;99.90
53310;DHT22;39197;53.200;5.792;2023-10-13T13:58:53;18.00;99.90
53310;DHT22;39197;53.200;5.792;2023-10-13T14:01:20;18.10;99.90
53310;DHT22;39197;53.200;5.792;2023-10-13T14:03:51;18.10;99.90
53310;DHT22;39197;53.200;5.792;2023-10-13T14:06:22;18.30;99.90
53310;DHT22;39197;53.200;5.792;2023-10-13T14:08:58;18.20;99.90
53310;DHT22;39197;53.200;5.792;2023-10-13T14:12:00;18.30;99.90
53310;DHT22;39197;53.200;5.792;2023-10-13T14:15:03;18.30;99.90
53310;DHT22;39197;53.200;5.792;2023-10-13T14:17:29;18.30;99.90
53310;DHT22;39197;53.200;5.792;2023-10-13T14:19:58;18.40;99.90
53310;DHT22;39197;53.200;5.792;2023-10-13T14:22:24;18.40;99.90
53310;DHT22;39197;53.200;5.792;2023-10-13T14:24:53;18.30;99.90
53310;DHT22;39197;53.200;5.792;2023-10-13T14:27:22;18.30;99.90
53310;DHT22;39197;53.200;5.792;2023-10-13T14:29:51;18.40;99.90
53310;DHT22;39197;53.200;5.792;2023-10-13T14:32:21;18.40;99.90
53310;DHT22;39197;53.200;5.792;2023-10-13T14:34:53;18.60;99.90
53310;DHT22;39197;53.200;5.792;2023-10-13T14:37:22;18.60;99.90
53310;DHT22;39197;53.200;5.792;2023-10-13T14:39:57;18.60;99.90
53310;DHT22;39197;53.200;5.792;2023-10-13T14:42:28;18.60;99.90
53310;DHT22;39197;53.200;5.792;2023-10-13T14:44:54;18.50;99.90
53310;DHT22;39197;53.200;5.792;2023-10-13T14:47:24;18.60;99.90
53310;DHT22;39197;53.200;5.792;2023-10-13T14:49:56;18.70;99.90
53310;DHT22;39197;53.200;5.792;2023-10-13T14:52:25;18.60;99.90
53310;DHT22;39197;53.200;5.792;2023-10-13T14:54:51;18.60;99.90
53310;DHT22;39197;53.200;5.792;2023-10-13T14:57:23;18.70;99.90
53310;DHT22;39197;53.200;5.792;2023-10-13T14:59:56;18.60;99.90
53310;DHT22;39197;53.200;5.792;2023-10-13T15:02:23;18.60;99.90
53310;DHT22;39197;53.200;5.792;2023-10-13T15:04:49;18.70;99.90
53310;DHT22;39197;53.200;5.792;2023-10-13T15:07:15;18.80;99.90
53310;DHT22;39197;53.200;5.792;2023-10-13T15:09:43;18.70;99.90
53310;DHT22;39197;53.200;5.792;2023-10-13T15:12:11;18.70;99.90
53310;DHT22;39197;53.200;5.792;2023-10-13T15:14:40;18.70;99.90
53310;DHT22;39197;53.200;5.792;2023-10-13T15:17:10;18.70;99.90
53310;DHT22;39197;53.200;5.792;2023-10-13T15:19:37;18.70;99.90
53310;DHT22;39197;53.200;5.792;2023-10-13T15:22:04;18.80;99.90
53310;DHT22;39197;53.200;5.792;2023-10-13T15:24:34;18.70;99.90
53310;DHT22;39197;53.200;5.792;2023-10-13T15:27:11;18.80;99.90
53310;DHT22;39197;53.200;5.792;2023-10-13T15:29:36;18.80;99.90
53310;DHT22;39197;53.200;5.792;2023-10-13T15:32:03;18.90;99.90
53310;DHT22;39197;53.200;5.792;2023-10-13T15:34:31;18.80;99.90
53310;DHT22;39197;53.200;5.792;2023-10-13T15:36:59;18.80;99.90
53310;DHT22;39197;53.200;5.792;2023-10-13T15:39:25;18.90;99.90
53310;DHT22;39197;53.200;5.792;2023-10-13T15:41:55;18.80;99.90
53310;DHT22;39197;53.200;5.792;2023-10-13T15:44:25;18.80;99.90
53310;DHT22;39197;53.200;5.792;2023-10-13T15:46:54;18.80;99.90
53310;DHT22;39197;53.200;5.792;2023-10-13T15:49:21;18.80;99.90
53310;DHT22;39197;53.200;5.792;2023-10-13T15:51:47;18.80;99.90
53310;DHT22;39197;53.200;5.792;2023-10-13T15:54:13;18.70;99.90
53310;DHT22;39197;53.200;5.792;2023-10-13T15:56:46;18.70;99.90
53310;DHT22;39197;53.200;5.792;2023-10-13T15:59:13;18.70;99.90
53310;DHT22;39197;53.200;5.792;2023-10-13T16:01:39;18.70;99.90
53310;DHT22;39197;53.200;5.792;2023-10-13T16:04:06;18.70;99.90
53310;DHT22;39197;53.200;5.792;2023-10-13T16:06:44;18.70;99.90
53310;DHT22;39197;53.200;5.792;2023-10-13T16:09:16;18.70;99.90
53310;DHT22;39197;53.200;5.792;2023-10-13T16:11:45;18.60;99.90
53310;DHT22;39197;53.200;5.792;2023-10-13T16:14:12;18.50;99.90
53310;DHT22;39197;53.200;5.792;2023-10-13T16:16:47;18.40;99.90
53310;DHT22;39197;53.200;5.792;2023-10-13T16:19:14;18.50;99.90
53310;DHT22;39197;53.200;5.792;2023-10-13T16:21:43;18.40;99.90
53310;DHT22;39197;53.200;5.792;2023-10-13T16:24:13;18.40;99.90